Time;durP1;ratioP1;P1;durP2;ratioP2;P2;SDS_P1;SDS_P2;PMS_P1;PMS_P2;Temp;Humidity;BMP_temperature;BMP_pressure;BME280_temperature;BME280_humidity;BME280_pressure;Samples;Min_cycle;Max_cycle;Signal;HPM_P1;HPM_P2
2021/03/22 00:01:15;;;;;;;50.55;34.15;;;;;;;19.35;59.96;102738.25;5011446;28;20057;-61
2021/03/22 00:03:41;;;;;;;54.50;36.10;;;;;;;19.36;59.90;102736.41;5011764;28;20474;-61
2021/03/22 00:06:06;;;;;;;53.70;35.33;;;;;;;19.36;60.06;102733.75;5009612;28;20045;-60
2021/03/22 00:08:32;;;;;;;46.65;32.88;;;;;;;19.35;60.10;102729.41;5010102;28;20184;-61
2021/03/22 00:10:58;;;;;;;51.00;34.00;;;;;;;19.34;60.13;102731.25;5010409;28;20205;-62
2021/03/22 00:13:25;;;;;;;50.65;33.60;;;;;;;19.34;59.88;102725.91;5011999;28;20038;-62
2021/03/22 00:15:54;;;;;;;48.00;32.90;;;;;;;19.34;60.05;102725.09;5010837;28;20029;-61
2021/03/22 00:18:22;;;;;;;48.58;32.58;;;;;;;19.35;60.01;102721.44;5008861;28;20030;-65
2021/03/22 00:20:48;;;;;;;48.97;33.30;;;;;;;19.33;59.98;102715.44;5008794;28;20041;-62
2021/03/22 00:23:14;;;;;;;49.42;33.22;;;;;;;19.33;59.92;102710.94;5010800;28;20147;-60
2021/03/22 00:25:39;;;;;;;48.63;32.45;;;;;;;19.32;59.87;102709.25;5011688;28;20229;-61
2021/03/22 00:28:06;;;;;;;46.78;31.38;;;;;;;19.31;59.60;102702.28;4992737;28;20414;-61
2021/03/22 00:30:35;;;;;;;45.50;30.95;;;;;;;19.31;59.43;102710.25;5008849;28;20074;-61
2021/03/22 00:33:01;;;;;;;41.78;29.30;;;;;;;19.31;59.76;102704.09;5010064;28;20045;-61
2021/03/22 00:35:27;;;;;;;43.95;30.83;;;;;;;19.31;59.45;102702.28;5007269;28;20044;-62
2021/03/22 00:37:53;;;;;;;44.65;29.85;;;;;;;19.31;59.76;102694.28;5010940;28;20037;-62
2021/03/22 00:40:21;;;;;;;45.47;30.63;;;;;;;19.30;59.39;102694.44;5009312;28;20446;-63
2021/03/22 00:42:46;;;;;;;43.40;29.50;;;;;;;19.30;59.66;102686.47;5008495;28;20034;-63
2021/03/22 00:45:13;;;;;;;44.50;29.20;;;;;;;19.31;59.40;102685.47;5007824;28;20042;-62
2021/03/22 00:47:38;;;;;;;40.83;28.83;;;;;;;19.30;59.57;102694.44;5017500;28;20413;-61
2021/03/22 00:50:08;;;;;;;43.88;28.92;;;;;;;19.29;59.53;102687.44;5015098;28;20485;-61
2021/03/22 00:52:33;;;;;;;40.25;27.77;;;;;;;19.29;59.70;102690.94;5007197;28;20030;-62
2021/03/22 00:54:59;;;;;;;40.42;28.55;;;;;;;19.29;59.16;102682.13;4991978;28;20034;-61
2021/03/22 00:57:24;;;;;;;40.80;27.67;;;;;;;19.28;59.16;102686.59;5009317;28;20034;-64
2021/03/22 00:59:50;;;;;;;39.08;27.52;;;;;;;19.29;59.21;102674.13;5013337;28;20036;-61
2021/03/22 01:02:15;;;;;;;42.33;28.27;;;;;;;19.28;59.27;102672.47;5010329;28;20062;-63
2021/03/22 01:04:41;;;;;;;39.33;27.65;;;;;;;19.27;59.17;102676.13;5008680;28;20108;-61
2021/03/22 01:07:07;;;;;;;41.78;28.15;;;;;;;19.28;59.61;102670.66;5010971;28;20061;-62
2021/03/22 01:09:32;;;;;;;39.40;27.02;;;;;;;19.29;59.30;102666.16;5012390;28;20037;-63
2021/03/22 01:11:58;;;;;;;37.33;26.48;;;;;;;19.28;59.41;102661.81;5012100;28;20045;-61
2021/03/22 01:14:24;;;;;;;36.28;26.20;;;;;;;19.28;59.08;102657.34;5007266;28;20581;-61
2021/03/22 01:16:50;;;;;;;38.58;26.02;;;;;;;19.27;59.04;102650.34;5009556;28;20109;-60
2021/03/22 01:19:22;;;;;;;39.08;26.85;;;;;;;19.26;59.13;102648.69;5013500;28;20477;-61
2021/03/22 01:21:57;;;;;;;35.38;25.25;;;;;;;19.26;59.51;102648.69;5008436;28;20025;-63
2021/03/22 01:24:24;;;;;;;37.17;25.45;;;;;;;19.28;59.22;102645.84;5001587;28;20029;-61
2021/03/22 01:26:53;;;;;;;37.05;25.88;;;;;;;19.26;59.18;102635.38;5009359;28;20042;-61
2021/03/22 01:29:30;;;;;;;35.53;25.10;;;;;;;19.24;59.30;102639.97;5021073;28;20038;-65
2021/03/22 01:32:00;;;;;;;37.30;26.17;;;;;;;19.26;59.17;102632.72;5008619;28;20040;-60
2021/03/22 01:34:28;;;;;;;36.55;25.23;;;;;;;19.25;59.11;102636.38;4992113;28;20095;-61
2021/03/22 01:36:55;;;;;;;37.67;25.48;;;;;;;19.26;59.34;102631.88;5008082;28;20107;-61
2021/03/22 01:39:27;;;;;;;37.03;24.92;;;;;;;19.24;58.96;102629.34;5011242;28;20405;-63
2021/03/22 01:41:58;;;;;;;35.60;23.92;;;;;;;19.24;59.18;102632.00;5011912;28;20034;-62
2021/03/22 01:44:23;;;;;;;33.78;23.98;;;;;;;19.24;59.22;102626.69;5007411;28;20563;-62
2021/03/22 01:47:05;;;;;;;35.17;23.73;;;;;;;19.23;59.54;102632.97;5008721;28;20030;-61
2021/03/22 01:49:44;;;;;;;34.28;23.25;;;;;;;19.23;59.25;102632.16;5022772;28;20057;-61
2021/03/22 01:52:11;;;;;;;35.60;23.80;;;;;;;19.24;59.34;102628.50;5006234;28;20049;-60
2021/03/22 01:54:37;;;;;;;37.33;25.20;;;;;;;19.23;59.44;102632.97;4988877;28;20038;-61
2021/03/22 01:57:24;;;;;;;36.58;24.15;;;;;;;19.22;59.48;102635.78;4999610;28;20034;-62
2021/03/22 01:59:52;;;;;;;37.40;23.23;;;;;;;19.24;59.30;102628.50;5007626;28;20025;-60
2021/03/22 02:02:18;;;;;;;33.30;22.23;;;;;;;19.22;59.46;102633.97;5006843;28;20092;-61
2021/03/22 02:04:44;;;;;;;32.85;22.25;;;;;;;19.23;59.56;102632.16;5017175;28;20056;-61
2021/03/22 02:07:09;;;;;;;31.77;22.60;;;;;;;19.23;59.38;102624.16;5007895;28;20045;-61
2021/03/22 02:09:35;;;;;;;32.15;21.98;;;;;;;19.23;59.80;102624.16;5007128;28;20034;-61
2021/03/22 02:12:01;;;;;;;31.92;22.27;;;;;;;19.22;59.37;102623.34;5008361;28;20038;-60
2021/03/22 02:14:26;;;;;;;31.67;21.67;;;;;;;19.22;59.41;102620.66;5006462;28;20525;-61
2021/03/22 02:17:04;;;;;;;32.70;22.88;;;;;;;19.21;59.79;102612.84;5008548;28;20045;-62
2021/03/22 02:20:06;;;;;;;32.40;21.55;;;;;;;19.19;59.58;102615.66;5007110;28;20034;-61
2021/03/22 02:22:41;;;;;;;34.03;22.55;;;;;;;19.22;59.39;102615.34;5007697;28;20034;-62
2021/03/22 02:25:39;;;;;;;33.03;20.63;;;;;;;19.19;59.57;102604.19;5004765;28;20173;-61
2021/03/22 02:28:39;;;;;;;30.35;21.05;;;;;;;19.19;59.75;102604.19;5012933;28;20052;-61
2021/03/22 02:31:17;;;;;;;28.88;19.30;;;;;;;19.20;59.45;102596.03;5009699;28;20469;-61
2021/03/22 02:34:04;;;;;;;30.13;21.25;;;;;;;19.19;59.28;102599.69;5016747;28;20049;-61
2021/03/22 02:37:01;;;;;;;29.48;19.77;;;;;;;19.19;59.19;102598.84;5012102;28;20092;-61
2021/03/22 02:39:33;;;;;;;30.13;19.92;;;;;;;19.19;59.38;102594.38;5005186;28;20524;-61
2021/03/22 02:42:01;;;;;;;27.95;19.45;;;;;;;19.20;59.55;102595.22;5023146;28;20095;-62
2021/03/22 02:44:32;;;;;;;27.02;19.23;;;;;;;19.20;59.46;102589.88;5004641;28;20034;-61
2021/03/22 02:47:18;;;;;;;29.52;19.85;;;;;;;19.18;59.38;102591.88;5008722;28;20057;-61
2021/03/22 02:49:44;;;;;;;26.95;17.75;;;;;;;19.19;59.21;102589.06;5010458;28;20092;-61
2021/03/22 02:52:20;;;;;;;28.00;19.38;;;;;;;19.18;59.59;102597.19;5009573;28;20423;-61
2021/03/22 02:54:56;;;;;;;24.67;17.73;;;;;;;19.17;59.38;102591.03;5006540;28;20026;-65
2021/03/22 02:57:54;;;;;;;29.08;18.63;;;;;;;19.17;59.13;102596.34;5008807;28;20034;-61
2021/03/22 03:00:29;;;;;;;26.60;18.13;;;;;;;19.18;59.26;102598.03;5008514;28;20137;-65
2021/03/22 03:02:59;;;;;;;25.85;17.55;;;;;;;19.18;59.04;102591.88;5008788;28;20050;-61
2021/03/22 03:05:27;;;;;;;27.35;17.58;;;;;;;19.18;59.34;102594.53;5027708;28;20037;-61
2021/03/22 03:07:57;;;;;;;24.52;17.17;;;;;;;19.16;59.25;102594.69;5005889;28;20033;-61
2021/03/22 03:10:23;;;;;;;25.35;17.35;;;;;;;19.18;59.29;102589.22;5012785;28;20042;-62
2021/03/22 03:12:49;;;;;;;25.67;17.00;;;;;;;19.17;58.94;102591.03;5010925;28;20038;-61
2021/03/22 03:15:16;;;;;;;24.27;16.38;;;;;;;19.18;59.32;102584.72;5008517;28;20160;-61
2021/03/22 03:17:42;;;;;;;25.52;17.70;;;;;;;19.17;58.94;102591.03;5008646;28;20072;-62
2021/03/22 03:20:12;;;;;;;26.17;15.63;;;;;;;19.17;59.35;102590.19;5011207;28;20481;-61
2021/03/22 03:22:39;;;;;;;24.38;16.55;;;;;;;19.16;58.97;102584.03;5010359;28;20038;-62
2021/03/22 03:25:07;;;;;;;24.80;16.60;;;;;;;19.17;59.19;102582.22;5011543;28;20127;-61
2021/03/22 03:27:33;;;;;;;24.20;15.73;;;;;;;19.17;59.31;102579.56;5009759;28;20604;-61
2021/03/22 03:29:58;;;;;;;21.92;15.07;;;;;;;19.16;59.38;102573.41;5009857;28;20065;-62
2021/03/22 03:32:24;;;;;;;25.70;15.85;;;;;;;19.17;59.26;102577.72;5010202;28;20034;-62
2021/03/22 03:34:50;;;;;;;25.73;16.15;;;;;;;19.17;59.04;102572.41;5011714;28;20065;-61
2021/03/22 03:37:16;;;;;;;22.17;15.35;;;;;;;19.18;59.28;102558.13;5011104;28;20112;-61
2021/03/22 03:39:42;;;;;;;23.23;15.10;;;;;;;19.17;59.28;102572.41;5011345;28;20133;-60
2021/03/22 03:42:10;;;;;;;23.55;15.38;;;;;;;19.17;59.01;102572.41;5010454;28;20038;-61
2021/03/22 03:44:37;;;;;;;21.85;14.82;;;;;;;19.15;59.29;102561.91;5006571;28;20188;-61
2021/03/22 03:47:03;;;;;;;21.38;14.18;;;;;;;19.15;59.13;102556.59;5010510;28;20038;-61
2021/03/22 03:49:28;;;;;;;21.77;14.45;;;;;;;19.16;59.29;102568.06;5009959;28;20125;-62
2021/03/22 03:51:54;;;;;;;20.80;13.73;;;;;;;19.17;59.18;102563.59;5016338;28;20161;-61
2021/03/22 03:54:20;;;;;;;19.65;13.77;;;;;;;19.14;59.37;102546.94;5010684;28;20041;-65
2021/03/22 03:56:46;;;;;;;21.50;14.45;;;;;;;19.16;59.42;102544.13;5009616;28;20037;-61
2021/03/22 03:59:11;;;;;;;21.92;14.55;;;;;;;19.17;59.34;102552.94;5010355;28;20089;-61
2021/03/22 04:01:37;;;;;;;21.73;14.20;;;;;;;19.16;59.43;102557.44;5009588;28;20575;-60
2021/03/22 04:04:03;;;;;;;20.70;13.40;;;;;;;19.15;58.90;102556.59;5010615;28;20061;-61
2021/03/22 04:06:31;;;;;;;18.77;13.23;;;;;;;19.15;58.82;102556.59;5010815;28;20041;-62
2021/03/22 04:09:00;;;;;;;19.98;13.35;;;;;;;19.14;58.84;102557.59;5009700;28;20030;-61
2021/03/22 04:11:31;;;;;;;18.60;13.00;;;;;;;19.14;59.14;102560.25;5009913;28;20114;-61
2021/03/22 04:13:57;;;;;;;20.70;13.07;;;;;;;19.14;58.92;102565.56;5014506;28;20109;-61
2021/03/22 04:16:25;;;;;;;18.35;12.55;;;;;;;19.14;59.22;102565.56;5007717;28;20374;-62
2021/03/22 04:18:50;;;;;;;20.50;12.52;;;;;;;19.14;58.91;102565.56;5008227;28;20044;-61
2021/03/22 04:21:25;;;;;;;18.92;12.52;;;;;;;19.12;59.21;102570.22;5011127;28;20030;-61
2021/03/22 04:23:51;;;;;;;;;;;;;;;19.08;59.24;102576.78;5009443;28;20036;-61
2021/03/22 04:26:18;;;;;;;18.60;11.98;;;;;;;19.12;59.39;102575.53;5010061;28;19935;-61
2021/03/22 04:28:44;;;;;;;18.92;11.73;;;;;;;19.12;58.77;102580.84;5008581;28;20029;-62
2021/03/22 04:31:12;;;;;;;16.08;11.50;;;;;;;19.13;58.88;102582.53;5008778;28;20042;-62
2021/03/22 04:33:37;;;;;;;17.05;11.52;;;;;;;19.13;59.09;102577.19;5000439;28;20033;-62
2021/03/22 04:36:04;;;;;;;16.50;10.70;;;;;;;19.12;59.04;102583.50;5011143;28;20042;-63
2021/03/22 04:38:30;;;;;;;18.05;11.30;;;;;;;19.12;58.91;102583.50;5007040;28;20077;-61
2021/03/22 04:40:55;;;;;;;14.57;10.57;;;;;;;19.11;59.14;102584.50;5008193;28;20441;-61
2021/03/22 04:43:21;;;;;;;15.93;10.13;;;;;;;19.12;58.68;102578.19;5008828;28;20038;-62
2021/03/22 04:45:46;;;;;;;16.75;10.95;;;;;;;19.12;59.18;102577.34;5008128;28;20080;-61
2021/03/22 04:48:13;;;;;;;16.70;10.20;;;;;;;19.12;59.07;102575.53;5010543;28;20408;-61
2021/03/22 04:50:39;;;;;;;14.48;10.40;;;;;;;19.10;58.69;102569.53;4980311;28;20033;-61
2021/03/22 04:53:04;;;;;;;14.43;10.05;;;;;;;19.10;58.77;102560.72;5001142;28;20088;-61
2021/03/22 04:55:30;;;;;;;15.65;10.05;;;;;;;19.10;59.07;102572.19;5003997;28;20112;-61
2021/03/22 04:57:56;;;;;;;13.98;9.38;;;;;;;19.10;58.86;102560.72;5010070;28;20188;-62
2021/03/22 05:00:26;;;;;;;13.32;9.90;;;;;;;19.09;58.77;102559.00;5018207;28;20029;-62
2021/03/22 05:02:54;;;;;;;14.77;10.27;;;;;;;19.10;58.71;102566.03;5008613;28;20049;-61
2021/03/22 05:05:20;;;;;;;15.60;10.20;;;;;;;19.09;58.95;102559.00;5010170;28;20026;-61
2021/03/22 05:07:45;;;;;;;13.63;9.30;;;;;;;19.08;58.68;102550.19;5008005;28;20501;-61
2021/03/22 05:10:16;;;;;;;11.90;8.82;;;;;;;19.08;58.76;102550.19;5009519;28;20341;-60
2021/03/22 05:12:42;;;;;;;13.07;9.35;;;;;;;19.08;58.63;102550.19;5017474;28;20037;-61
2021/03/22 05:15:08;;;;;;;12.00;8.68;;;;;;;19.06;58.47;102546.84;5008909;28;20033;-63
2021/03/22 05:17:33;;;;;;;14.30;9.30;;;;;;;19.07;58.79;102545.88;5008176;28;20527;-61
2021/03/22 05:19:59;;;;;;;13.73;9.07;;;;;;;19.07;58.55;102545.88;5007836;28;20045;-61
2021/03/22 05:22:24;;;;;;;12.50;8.80;;;;;;;19.07;58.37;102545.88;4990701;28;20045;-61
2021/03/22 05:24:49;;;;;;;13.85;8.80;;;;;;;19.07;58.75;102545.88;5011864;28;20034;-60
2021/03/22 05:27:15;;;;;;;12.80;8.68;;;;;;;19.07;58.55;102543.22;5009439;28;20049;-61
2021/03/22 05:29:40;;;;;;;12.18;8.60;;;;;;;19.07;58.34;102548.53;5007499;28;20034;-61
2021/03/22 05:32:30;;;;;;;12.80;8.50;;;;;;;19.03;58.58;102541.84;5009472;28;20044;-61
2021/03/22 05:34:56;;;;;;;11.35;8.35;;;;;;;19.06;58.71;102540.69;5009682;28;20042;-62
2021/03/22 05:37:22;;;;;;;12.93;8.57;;;;;;;19.05;58.25;102537.19;5008176;28;20792;-65
2021/03/22 05:39:48;;;;;;;12.25;8.70;;;;;;;19.05;58.50;102533.72;5009420;28;20116;-61
2021/03/22 05:42:51;;;;;;;10.95;7.80;;;;;;;19.02;58.52;102534.84;5006153;28;20117;-61
2021/03/22 05:45:35;;;;;;;11.32;8.23;;;;;;;19.02;58.49;102537.50;4994221;28;20741;-62
2021/03/22 05:48:16;;;;;;;12.70;8.25;;;;;;;19.04;58.54;102538.19;5013080;28;20029;-61
2021/03/22 05:51:19;;;;;;;11.45;7.93;;;;;;;19.01;58.31;102527.88;5009877;28;20491;-61
2021/03/22 05:53:51;;;;;;;11.10;7.55;;;;;;;19.02;58.42;102532.19;5007699;28;20113;-60
2021/03/22 05:56:35;;;;;;;10.07;7.18;;;;;;;19.02;58.05;102534.03;4998646;28;20544;-62
2021/03/22 05:59:42;;;;;;;10.63;7.33;;;;;;;18.99;58.57;102516.53;5012439;28;20500;-60
2021/03/22 06:02:17;;;;;;;10.07;7.25;;;;;;;19.00;58.54;102526.19;4987273;28;20072;-62
2021/03/22 06:04:48;;;;;;;;;;;;;;;18.98;58.30;102532.66;5009057;28;20044;-62
2021/03/22 06:07:18;;;;;;;9.70;6.60;;;;;;;19.00;58.02;102531.50;5008780;28;20004;-62
2021/03/22 06:10:02;;;;;;;10.60;7.05;;;;;;;18.98;58.40;102522.84;5008388;28;20041;-61
2021/03/22 06:12:28;;;;;;;10.75;7.32;;;;;;;19.01;58.37;102521.72;5007480;28;20034;-61
2021/03/22 06:15:28;;;;;;;10.75;6.88;;;;;;;18.99;58.01;102523.69;5007987;28;20045;-62
2021/03/22 06:18:03;;;;;;;9.55;6.40;;;;;;;19.00;58.13;102533.34;4994073;28;20143;-62
2021/03/22 06:20:36;;;;;;;9.98;7.20;;;;;;;18.99;57.81;102535.16;5019169;28;20045;-61
2021/03/22 06:23:16;;;;;;;9.55;7.00;;;;;;;18.98;57.71;102528.16;5007729;28;20030;-61
2021/03/22 06:25:42;;;;;;;9.73;6.82;;;;;;;18.99;58.01;102534.31;5007955;28;20067;-61
2021/03/22 06:28:28;;;;;;;9.30;6.50;;;;;;;18.97;58.02;102533.66;5006722;28;20432;-62
2021/03/22 06:31:11;;;;;;;9.40;6.22;;;;;;;18.96;57.95;102532.81;5006163;28;20728;-61
2021/03/22 06:33:40;;;;;;;8.85;6.22;;;;;;;18.98;57.77;102533.50;4998771;28;20048;-61
2021/03/22 06:36:08;;;;;;;8.90;6.47;;;;;;;18.99;57.92;102526.34;5008224;28;20042;-61
2021/03/22 06:38:33;;;;;;;9.73;6.38;;;;;;;18.99;58.09;102535.16;5006027;28;20104;-61
2021/03/22 06:41:33;;;;;;;9.27;6.25;;;;;;;18.95;58.11;102530.31;5010311;28;20124;-61
2021/03/22 06:44:02;;;;;;;9.68;6.47;;;;;;;18.97;57.85;102526.50;5011955;28;20044;-61
2021/03/22 06:46:28;;;;;;;9.05;6.03;;;;;;;18.97;57.94;102526.50;5012120;28;20096;-63
2021/03/22 06:49:27;;;;;;;8.77;5.85;;;;;;;18.94;57.85;102518.84;5010680;28;20030;-61
2021/03/22 06:52:18;;;;;;;8.82;5.63;;;;;;;18.94;57.93;102529.47;5013634;28;20069;-61
2021/03/22 06:54:49;;;;;;;8.70;6.00;;;;;;;18.97;57.82;102530.97;5009167;28;20041;-62
2021/03/22 06:57:26;;;;;;;8.50;5.97;;;;;;;18.95;57.79;102522.31;5012735;28;20030;-63
2021/03/22 07:00:10;;;;;;;7.68;5.10;;;;;;;18.94;57.74;102525.97;5000164;28;20709;-61
2021/03/22 07:02:47;;;;;;;8.50;5.70;;;;;;;18.94;58.05;102531.28;5009733;28;20844;-62
2021/03/22 07:05:26;;;;;;;7.75;5.50;;;;;;;18.93;57.79;102535.75;5001248;28;20075;-61
2021/03/22 07:08:12;;;;;;;8.43;5.32;;;;;;;18.92;57.98;102539.41;5010624;28;20408;-62
2021/03/22 07:11:04;;;;;;;7.70;5.60;;;;;;;18.94;57.64;102536.59;5011480;28;20053;-61
2021/03/22 07:13:31;;;;;;;8.02;5.32;;;;;;;18.95;57.75;102533.78;5001420;28;20535;-61
2021/03/22 07:16:20;;;;;;;7.57;5.20;;;;;;;18.92;57.59;102534.06;5010803;28;20041;-62
2021/03/22 07:19:14;;;;;;;7.70;5.25;;;;;;;18.92;57.71;102539.41;5009798;28;20102;-62
2021/03/22 07:21:52;;;;;;;8.45;5.65;;;;;;;18.92;57.55;102534.06;5003526;28;20030;-61
2021/03/22 07:24:40;;;;;;;6.72;4.93;;;;;;;18.90;57.73;102530.72;5009733;28;20069;-61
2021/03/22 07:27:12;;;;;;;7.97;5.38;;;;;;;18.93;57.63;102537.56;5012008;28;20088;-62
2021/03/22 07:30:20;;;;;;;7.13;4.85;;;;;;;18.90;57.81;102527.25;5009885;28;20037;-63
2021/03/22 07:33:09;;;;;;;6.65;4.63;;;;;;;18.89;57.73;102531.72;5021196;28;20676;-62
2021/03/22 07:35:56;;;;;;;7.43;5.13;;;;;;;18.90;57.71;102528.06;4995423;28;20056;-61
2021/03/22 07:38:21;;;;;;;8.10;5.28;;;;;;;18.92;57.84;102538.56;5010312;28;20040;-61
2021/03/22 07:40:52;;;;;;;6.82;4.80;;;;;;;18.91;57.88;102534.22;5008135;28;20037;-61
2021/03/22 07:43:36;;;;;;;7.35;5.20;;;;;;;18.88;57.90;102527.38;5019360;28;20489;-62
2021/03/22 07:46:32;;;;;;;7.63;5.10;;;;;;;18.88;57.58;102530.06;5010575;28;20033;-62
2021/03/22 07:49:13;;;;;;;7.35;5.15;;;;;;;18.88;57.84;102530.06;5008956;28;20030;-62
2021/03/22 07:51:47;;;;;;;7.80;5.13;;;;;;;18.89;57.91;102539.69;5022116;28;20037;-63
2021/03/22 07:54:12;;;;;;;10.68;6.18;;;;;;;18.89;58.18;102531.72;5015944;28;20034;-62
2021/03/22 07:56:56;;;;;;;7.13;4.90;;;;;;;18.89;58.78;102533.53;5010586;28;20049;-63
2021/03/22 07:59:43;;;;;;;12.23;6.72;;;;;;;18.88;59.08;102527.38;5008857;28;20030;-63
2021/03/22 08:02:21;;;;;;;12.85;5.90;;;;;;;18.90;59.21;102528.06;5010195;28;20136;-64
2021/03/22 08:04:52;;;;;;;10.40;6.22;;;;;;;18.91;59.44;102529.75;5011059;28;20136;-63
2021/03/22 08:07:49;;;;;;;11.93;7.13;;;;;;;18.89;59.44;102529.06;5010774;28;20030;-63
2021/03/22 08:10:23;;;;;;;13.05;6.70;;;;;;;18.92;59.61;102523.44;5005777;28;20045;-63
2021/03/22 08:12:59;;;;;;;13.00;6.82;;;;;;;18.91;59.76;102527.09;5014896;28;20030;-63
2021/03/22 08:15:31;;;;;;;14.55;6.30;;;;;;;18.92;59.92;102520.78;5010432;28;20061;-62
2021/03/22 08:18:17;;;;;;;14.63;6.40;;;;;;;18.90;59.87;102519.25;5010703;28;20711;-63
2021/03/22 08:21:03;;;;;;;11.57;5.97;;;;;;;18.91;59.90;102515.59;5010253;28;20033;-62
2021/03/22 08:23:43;;;;;;;11.50;5.72;;;;;;;18.92;59.82;102518.13;5008574;28;20385;-65
2021/03/22 08:26:18;;;;;;;12.65;6.07;;;;;;;18.92;59.60;102510.13;5010632;28;20045;-69
2021/03/22 08:28:57;;;;;;;13.05;6.05;;;;;;;18.93;59.44;102513.63;5010453;28;20026;-70
2021/03/22 08:31:25;;;;;;;11.05;5.25;;;;;;;18.93;59.47;102511.81;4997968;28;20057;-78
2021/03/22 08:34:01;;;;;;;13.55;5.40;;;;;;;18.92;59.07;102510.13;5010210;28;20045;-68
2021/03/22 08:36:44;;;;;;;9.70;4.85;;;;;;;18.91;58.83;102511.13;5016678;28;20120;-70
2021/03/22 08:39:30;;;;;;;15.25;5.88;;;;;;;18.91;58.31;102507.63;4999315;28;20486;-65
2021/03/22 08:42:04;;;;;;;15.02;5.28;;;;;;;18.91;58.16;102516.44;4999711;28;20534;-68
2021/03/22 08:44:36;;;;;;;11.98;4.53;;;;;;;18.91;57.44;102510.28;5009957;28;20493;-67
2021/03/22 08:47:16;;;;;;;10.68;4.70;;;;;;;18.88;57.21;102515.91;5013502;28;20045;-65
2021/03/22 08:49:51;;;;;;;11.57;4.45;;;;;;;18.87;56.88;102506.28;5008784;28;20022;-66
2021/03/22 08:52:31;;;;;;;21.67;4.75;;;;;;;18.83;55.98;102513.72;5009813;28;20119;-68
2021/03/22 08:55:11;;;;;;;8.73;4.45;;;;;;;18.80;55.20;102514.88;5002136;28;20530;-66
2021/03/22 08:58:16;;;;;;;10.98;4.47;;;;;;;18.74;54.36;102507.47;5008808;28;20101;-65
2021/03/22 09:00:44;;;;;;;12.63;4.35;;;;;;;18.70;53.87;102502.59;5006145;28;20030;-66
2021/03/22 09:03:15;;;;;;;11.15;4.47;;;;;;;18.64;53.38;102503.22;5008788;28;20100;-64
2021/03/22 09:06:03;;;;;;;9.90;4.35;;;;;;;18.59;52.51;102505.44;5014192;28;20030;-67
2021/03/22 09:08:31;;;;;;;7.25;4.18;;;;;;;18.57;52.23;102510.91;5008066;28;20029;-68
2021/03/22 09:11:13;;;;;;;8.50;4.05;;;;;;;18.47;51.48;102510.97;5007254;28;20103;-67
2021/03/22 09:13:49;;;;;;;12.93;4.78;;;;;;;18.43;51.46;102506.91;5007920;28;20038;-67
2021/03/22 09:16:44;;;;;;;7.20;4.22;;;;;;;18.36;50.74;102508.50;5008335;28;20038;-67
2021/03/22 09:19:10;;;;;;;9.77;4.25;;;;;;;18.35;50.87;102504.19;4997066;28;20046;-67
2021/03/22 09:21:44;;;;;;;7.10;4.00;;;;;;;18.33;50.69;102500.84;5008795;28;20041;-66
2021/03/22 09:24:38;;;;;;;6.25;4.18;;;;;;;18.29;50.54;102506.56;5009199;28;20425;-66
2021/03/22 09:27:16;;;;;;;8.27;4.28;;;;;;;18.25;50.04;102506.03;5009697;28;20036;-66
2021/03/22 09:29:44;;;;;;;5.68;3.63;;;;;;;18.24;49.95;102501.69;4995172;28;20038;-66
2021/03/22 09:32:25;;;;;;;5.85;3.55;;;;;;;18.19;49.26;102499.50;5002982;28;20044;-66
2021/03/22 09:34:56;;;;;;;7.60;3.92;;;;;;;18.17;49.20;102504.13;5001550;28;20025;-66
2021/03/22 09:37:54;;;;;;;5.70;3.58;;;;;;;18.11;49.11;102504.69;5009118;28;20088;-67
2021/03/22 09:40:20;;;;;;;8.10;3.85;;;;;;;18.11;49.19;102511.81;4991086;28;20128;-67
2021/03/22 09:43:14;;;;;;;7.43;3.60;;;;;;;18.06;48.63;102509.59;5011433;28;20140;-66
2021/03/22 09:45:55;;;;;;;6.25;3.80;;;;;;;18.06;48.93;102503.47;5006080;28;20064;-66
2021/03/22 09:48:25;;;;;;;7.88;3.67;;;;;;;18.07;48.94;102513.94;5008441;28;20029;-66
2021/03/22 09:50:50;;;;;;;7.03;3.67;;;;;;;18.08;48.94;102514.78;5007447;28;20036;-67
2021/03/22 09:53:26;;;;;;;6.45;3.90;;;;;;;18.07;48.57;102510.44;5007704;28;20034;-69
2021/03/22 09:55:51;;;;;;;7.25;4.15;;;;;;;18.07;48.44;102513.09;5005568;28;20034;-66
2021/03/22 09:58:37;;;;;;;7.95;4.00;;;;;;;18.03;48.23;102515.22;5008661;28;20488;-66
2021/03/22 10:01:05;;;;;;;5.93;4.50;;;;;;;18.04;48.49;102521.34;5008249;28;20021;-67
2021/03/22 10:03:32;;;;;;;8.32;4.60;;;;;;;18.02;48.21;102513.53;5008524;28;20076;-66
2021/03/22 10:06:03;;;;;;;8.57;4.00;;;;;;;18.03;48.35;102517.03;4994687;28;20192;-67
2021/03/22 10:08:34;;;;;;;5.85;3.72;;;;;;;18.05;48.36;102517.72;5009306;28;20034;-66
2021/03/22 10:11:19;;;;;;;6.35;3.97;;;;;;;18.06;48.80;102519.41;5006222;28;20084;-67
2021/03/22 10:13:47;;;;;;;13.43;4.53;;;;;;;18.08;48.34;102520.09;5008779;28;20030;-67
2021/03/22 10:16:33;;;;;;;6.88;4.65;;;;;;;18.04;48.27;102516.88;5008011;28;20037;-66
2021/03/22 10:19:05;;;;;;;6.80;4.38;;;;;;;18.04;48.67;102518.72;5007351;28;20049;-67
2021/03/22 10:21:34;;;;;;;8.50;4.53;;;;;;;18.04;48.47;102516.06;5008405;28;20103;-67
2021/03/22 10:24:29;;;;;;;8.45;4.07;;;;;;;18.02;48.87;102518.84;5008196;28;20109;-67
2021/03/22 10:26:57;;;;;;;8.00;4.32;;;;;;;18.04;48.77;102516.06;5021099;28;20044;-67
2021/03/22 10:29:22;;;;;;;10.40;4.80;;;;;;;18.04;48.68;102518.72;5008023;28;20022;-66
2021/03/22 10:32:19;;;;;;;6.63;4.03;;;;;;;17.99;48.62;102511.19;4997170;28;20041;-67
2021/03/22 10:34:47;;;;;;;7.88;4.38;;;;;;;17.99;48.43;102521.81;5001260;28;20121;-66
2021/03/22 10:37:22;;;;;;;6.10;4.20;;;;;;;17.99;48.40;102523.59;5008072;28;20030;-66
2021/03/22 10:39:48;;;;;;;8.00;4.97;;;;;;;17.99;48.53;102518.28;5008503;28;20422;-67
2021/03/22 10:42:28;;;;;;;6.57;4.40;;;;;;;17.97;48.55;102518.44;5007429;28;20116;-67
2021/03/22 10:44:54;;;;;;;11.85;5.30;;;;;;;17.99;48.16;102526.25;5007136;28;20038;-67
2021/03/22 10:47:22;;;;;;;12.13;4.88;;;;;;;17.97;48.35;102521.09;5008294;28;20037;-67
2021/03/22 10:49:51;;;;;;;7.53;4.60;;;;;;;17.98;48.60;102514.78;4998259;28;20042;-66
2021/03/22 10:52:28;;;;;;;7.32;4.60;;;;;;;17.96;48.49;102520.25;5004310;28;20037;-66
2021/03/22 10:54:55;;;;;;;9.73;4.53;;;;;;;17.97;48.48;102521.09;5008427;28;20030;-66
2021/03/22 10:57:25;;;;;;;8.40;4.68;;;;;;;17.97;48.77;102515.78;5008807;28;20037;-66
2021/03/22 10:59:53;;;;;;;9.65;5.03;;;;;;;17.97;48.31;102521.09;5018701;28;20022;-65
2021/03/22 11:02:30;;;;;;;14.68;5.20;;;;;;;17.94;48.48;102511.59;5007177;28;20060;-67
2021/03/22 11:04:57;;;;;;;16.92;5.55;;;;;;;17.95;48.43;102517.75;4995064;28;20784;-66
2021/03/22 11:07:25;;;;;;;69.95;9.23;;;;;;;17.95;49.04;102515.09;5006098;28;20038;-64
2021/03/22 11:10:00;;;;;;;90.75;11.80;;;;;;;17.99;49.48;102518.28;5006636;28;20030;-63
2021/03/22 11:12:28;;;;;;;23.38;5.90;;;;;;;18.00;49.40;102518.16;5020149;28;20025;-68
2021/03/22 11:15:08;;;;;;;16.25;5.82;;;;;;;17.98;49.45;102519.25;5007248;28;20673;-68
2021/03/22 11:17:34;;;;;;;17.27;5.72;;;;;;;17.99;49.42;102512.97;5005485;28;20083;-68
2021/03/22 11:20:07;;;;;;;12.75;6.03;;;;;;;17.96;49.08;102520.25;5007282;28;20038;-68
2021/03/22 11:22:35;;;;;;;10.35;5.78;;;;;;;17.98;49.19;102521.91;5007726;28;20022;-65
2021/03/22 11:25:07;;;;;;;7.35;4.90;;;;;;;17.97;48.88;102513.13;5006997;28;20065;-66
2021/03/22 11:27:53;;;;;;;9.13;5.20;;;;;;;17.93;48.79;102520.53;5010245;28;20441;-64
2021/03/22 11:30:30;;;;;;;8.63;5.32;;;;;;;17.94;48.84;102518.72;5009848;28;20045;-69
2021/03/22 11:32:55;;;;;;;6.70;5.30;;;;;;;17.95;49.45;102518.56;5010921;28;20053;-65
2021/03/22 11:35:22;;;;;;;9.25;5.35;;;;;;;17.97;49.77;102523.75;5010117;28;20061;-64
2021/03/22 11:37:54;;;;;;;7.07;5.60;;;;;;;17.95;49.93;102512.44;5009829;28;20026;-68
2021/03/22 11:40:24;;;;;;;6.93;5.07;;;;;;;17.93;49.71;102515.22;5016734;28;20034;-65
2021/03/22 11:42:52;;;;;;;6.60;4.18;;;;;;;17.92;49.30;102512.72;5011561;28;20044;-65
2021/03/22 11:45:40;;;;;;;8.18;4.85;;;;;;;17.87;49.27;102510.50;5008915;28;20100;-68